sensor_id;sensor_type;location;lat;lon;timestamp;P1;durP1;ratioP1;P2;durP2;ratioP2
33738;SDS011;20063;51.730;11.110;2023-06-14T00:02:05;2.15;;;1.88;;
33738;SDS011;20063;51.730;11.110;2023-06-14T00:04:33;2.97;;;1.83;;
33738;SDS011;20063;51.730;11.110;2023-06-14T00:06:59;6.05;;;2.20;;
33738;SDS011;20063;51.730;11.110;2023-06-14T00:09:25;4.57;;;1.98;;
33738;SDS011;20063;51.730;11.110;2023-06-14T00:11:51;3.05;;;1.90;;
33738;SDS011;20063;51.730;11.110;2023-06-14T00:14:16;3.17;;;2.33;;
33738;SDS011;20063;51.730;11.110;2023-06-14T00:16:42;6.28;;;2.55;;
33738;SDS011;20063;51.730;11.110;2023-06-14T00:19:10;3.45;;;2.13;;
33738;SDS011;20063;51.730;11.110;2023-06-14T00:21:37;5.03;;;2.17;;
33738;SDS011;20063;51.730;11.110;2023-06-14T00:24:04;4.10;;;2.08;;
33738;SDS011;20063;51.730;11.110;2023-06-14T00:26:30;7.25;;;2.30;;
33738;SDS011;20063;51.730;11.110;2023-06-14T00:28:55;2.20;;;1.65;;
33738;SDS011;20063;51.730;11.110;2023-06-14T00:31:23;9.05;;;2.60;;
33738;SDS011;20063;51.730;11.110;2023-06-14T00:33:49;4.10;;;2.58;;
33738;SDS011;20063;51.730;11.110;2023-06-14T00:36:15;4.65;;;2.70;;
33738;SDS011;20063;51.730;11.110;2023-06-14T00:38:40;5.18;;;2.22;;
33738;SDS011;20063;51.730;11.110;2023-06-14T00:41:06;7.00;;;3.10;;
33738;SDS011;20063;51.730;11.110;2023-06-14T00:43:31;5.30;;;2.53;;
33738;SDS011;20063;51.730;11.110;2023-06-14T00:45:57;6.10;;;3.10;;
33738;SDS011;20063;51.730;11.110;2023-06-14T00:48:26;3.75;;;2.75;;
33738;SDS011;20063;51.730;11.110;2023-06-14T00:50:53;5.07;;;2.70;;
33738;SDS011;20063;51.730;11.110;2023-06-14T00:53:20;4.18;;;2.72;;
33738;SDS011;20063;51.730;11.110;2023-06-14T00:55:47;7.50;;;3.17;;
33738;SDS011;20063;51.730;11.110;2023-06-14T00:58:13;7.53;;;3.10;;
33738;SDS011;20063;51.730;11.110;2023-06-14T01:00:40;7.20;;;2.70;;
33738;SDS011;20063;51.730;11.110;2023-06-14T01:03:05;9.55;;;2.85;;
33738;SDS011;20063;51.730;11.110;2023-06-14T01:05:31;4.88;;;2.80;;
33738;SDS011;20063;51.730;11.110;2023-06-14T01:10:56;7.63;;;3.17;;
33738;SDS011;20063;51.730;11.110;2023-06-14T01:15:54;5.30;;;2.72;;
33738;SDS011;20063;51.730;11.110;2023-06-14T01:18:21;4.53;;;2.40;;
33738;SDS011;20063;51.730;11.110;2023-06-14T01:20:50;12.63;;;3.08;;
33738;SDS011;20063;51.730;11.110;2023-06-14T01:23:20;5.68;;;2.90;;
33738;SDS011;20063;51.730;11.110;2023-06-14T01:25:47;9.65;;;2.65;;
33738;SDS011;20063;51.730;11.110;2023-06-14T01:28:17;4.50;;;2.30;;
33738;SDS011;20063;51.730;11.110;2023-06-14T01:30:46;4.70;;;2.58;;
33738;SDS011;20063;51.730;11.110;2023-06-14T01:33:15;11.13;;;2.70;;
33738;SDS011;20063;51.730;11.110;2023-06-14T01:35:46;3.50;;;2.00;;
33738;SDS011;20063;51.730;11.110;2023-06-14T01:38:13;5.68;;;2.72;;
33738;SDS011;20063;51.730;11.110;2023-06-14T01:40:39;2.20;;;2.00;;
33738;SDS011;20063;51.730;11.110;2023-06-14T01:43:08;2.53;;;2.00;;
33738;SDS011;20063;51.730;11.110;2023-06-14T01:45:37;3.40;;;1.95;;
33738;SDS011;20063;51.730;11.110;2023-06-14T01:48:05;5.35;;;1.88;;
33738;SDS011;20063;51.730;11.110;2023-06-14T01:50:31;4.75;;;2.35;;
33738;SDS011;20063;51.730;11.110;2023-06-14T01:52:57;5.05;;;2.38;;
33738;SDS011;20063;51.730;11.110;2023-06-14T01:55:23;4.13;;;2.60;;
33738;SDS011;20063;51.730;11.110;2023-06-14T01:57:53;3.15;;;2.17;;
33738;SDS011;20063;51.730;11.110;2023-06-14T02:00:19;7.35;;;1.92;;
33738;SDS011;20063;51.730;11.110;2023-06-14T02:02:46;6.45;;;2.30;;
33738;SDS011;20063;51.730;11.110;2023-06-14T02:05:12;3.28;;;1.92;;
33738;SDS011;20063;51.730;11.110;2023-06-14T02:07:37;3.20;;;1.95;;
33738;SDS011;20063;51.730;11.110;2023-06-14T02:10:03;9.15;;;2.30;;
33738;SDS011;20063;51.730;11.110;2023-06-14T02:12:30;3.42;;;2.15;;
33738;SDS011;20063;51.730;11.110;2023-06-14T02:14:55;3.42;;;2.00;;
33738;SDS011;20063;51.730;11.110;2023-06-14T02:17:21;5.28;;;2.33;;
33738;SDS011;20063;51.730;11.110;2023-06-14T02:19:47;2.97;;;2.28;;
33738;SDS011;20063;51.730;11.110;2023-06-14T02:22:13;2.28;;;1.83;;
33738;SDS011;20063;51.730;11.110;2023-06-14T02:24:40;7.55;;;2.22;;
33738;SDS011;20063;51.730;11.110;2023-06-14T02:27:06;4.38;;;2.53;;
33738;SDS011;20063;51.730;11.110;2023-06-14T02:29:33;4.55;;;2.40;;
33738;SDS011;20063;51.730;11.110;2023-06-14T02:31:59;3.20;;;2.80;;
33738;SDS011;20063;51.730;11.110;2023-06-14T02:34:24;5.82;;;2.55;;
33738;SDS011;20063;51.730;11.110;2023-06-14T02:36:50;6.65;;;2.50;;
33738;SDS011;20063;51.730;11.110;2023-06-14T02:39:17;8.60;;;2.95;;
33738;SDS011;20063;51.730;11.110;2023-06-14T02:41:45;5.88;;;2.95;;
33738;SDS011;20063;51.730;11.110;2023-06-14T02:44:12;5.45;;;2.38;;
33738;SDS011;20063;51.730;11.110;2023-06-14T02:46:38;5.57;;;2.35;;
33738;SDS011;20063;51.730;11.110;2023-06-14T02:49:04;10.65;;;2.53;;
33738;SDS011;20063;51.730;11.110;2023-06-14T02:51:30;4.38;;;2.55;;
33738;SDS011;20063;51.730;11.110;2023-06-14T02:53:56;3.97;;;2.78;;
33738;SDS011;20063;51.730;11.110;2023-06-14T02:56:21;6.57;;;3.00;;
33738;SDS011;20063;51.730;11.110;2023-06-14T02:58:47;2.53;;;2.33;;
33738;SDS011;20063;51.730;11.110;2023-06-14T03:01:13;3.80;;;2.58;;
33738;SDS011;20063;51.730;11.110;2023-06-14T03:03:39;4.68;;;3.00;;
33738;SDS011;20063;51.730;11.110;2023-06-14T03:06:05;9.75;;;2.88;;
33738;SDS011;20063;51.730;11.110;2023-06-14T03:08:31;4.65;;;2.53;;
33738;SDS011;20063;51.730;11.110;2023-06-14T03:11:03;2.58;;;2.30;;
33738;SDS011;20063;51.730;11.110;2023-06-14T03:13:32;2.17;;;1.90;;
33738;SDS011;20063;51.730;11.110;2023-06-14T03:16:00;3.33;;;2.38;;
33738;SDS011;20063;51.730;11.110;2023-06-14T03:18:29;7.65;;;2.55;;
33738;SDS011;20063;51.730;11.110;2023-06-14T03:20:56;3.45;;;2.42;;
33738;SDS011;20063;51.730;11.110;2023-06-14T03:23:23;4.60;;;2.63;;
33738;SDS011;20063;51.730;11.110;2023-06-14T03:25:50;4.10;;;2.25;;
33738;SDS011;20063;51.730;11.110;2023-06-14T03:28:16;3.80;;;2.53;;
33738;SDS011;20063;51.730;11.110;2023-06-14T03:30:42;5.03;;;2.83;;
33738;SDS011;20063;51.730;11.110;2023-06-14T03:33:10;4.97;;;2.42;;
33738;SDS011;20063;51.730;11.110;2023-06-14T03:35:36;4.10;;;2.63;;
33738;SDS011;20063;51.730;11.110;2023-06-14T03:38:01;6.30;;;2.80;;
33738;SDS011;20063;51.730;11.110;2023-06-14T03:40:30;3.97;;;3.28;;
33738;SDS011;20063;51.730;11.110;2023-06-14T03:42:56;7.55;;;2.53;;
33738;SDS011;20063;51.730;11.110;2023-06-14T03:45:22;2.42;;;2.08;;
33738;SDS011;20063;51.730;11.110;2023-06-14T03:47:47;2.70;;;2.15;;
33738;SDS011;20063;51.730;11.110;2023-06-14T03:50:13;3.92;;;2.78;;
33738;SDS011;20063;51.730;11.110;2023-06-14T03:52:39;6.38;;;2.40;;
33738;SDS011;20063;51.730;11.110;2023-06-14T03:55:07;3.67;;;2.42;;
33738;SDS011;20063;51.730;11.110;2023-06-14T03:57:33;3.30;;;2.55;;
33738;SDS011;20063;51.730;11.110;2023-06-14T03:59:59;10.30;;;2.83;;
33738;SDS011;20063;51.730;11.110;2023-06-14T04:02:24;3.80;;;3.03;;
33738;SDS011;20063;51.730;11.110;2023-06-14T04:04:51;3.45;;;2.28;;
33738;SDS011;20063;51.730;11.110;2023-06-14T04:07:19;6.43;;;2.78;;
33738;SDS011;20063;51.730;11.110;2023-06-14T04:09:44;6.03;;;3.17;;
33738;SDS011;20063;51.730;11.110;2023-06-14T04:12:10;9.35;;;2.65;;
33738;SDS011;20063;51.730;11.110;2023-06-14T04:14:39;3.53;;;2.20;;
33738;SDS011;20063;51.730;11.110;2023-06-14T04:17:11;5.72;;;2.40;;
33738;SDS011;20063;51.730;11.110;2023-06-14T04:19:37;3.03;;;2.28;;
33738;SDS011;20063;51.730;11.110;2023-06-14T04:22:05;7.05;;;2.83;;
33738;SDS011;20063;51.730;11.110;2023-06-14T04:24:31;7.65;;;2.97;;
33738;SDS011;20063;51.730;11.110;2023-06-14T04:26:58;3.25;;;2.50;;
33738;SDS011;20063;51.730;11.110;2023-06-14T04:29:24;3.47;;;2.40;;
33738;SDS011;20063;51.730;11.110;2023-06-14T04:31:51;3.13;;;2.58;;
33738;SDS011;20063;51.730;11.110;2023-06-14T04:34:19;7.05;;;2.53;;
33738;SDS011;20063;51.730;11.110;2023-06-14T04:36:46;8.10;;;3.17;;
33738;SDS011;20063;51.730;11.110;2023-06-14T04:39:18;3.42;;;2.55;;
33738;SDS011;20063;51.730;11.110;2023-06-14T04:41:52;3.83;;;2.25;;
33738;SDS011;20063;51.730;11.110;2023-06-14T04:44:21;5.88;;;3.00;;
33738;SDS011;20063;51.730;11.110;2023-06-14T04:46:55;3.80;;;2.78;;
33738;SDS011;20063;51.730;11.110;2023-06-14T04:49:22;6.18;;;2.70;;
33738;SDS011;20063;51.730;11.110;2023-06-14T04:51:48;6.15;;;2.95;;
33738;SDS011;20063;51.730;11.110;2023-06-14T04:54:22;6.68;;;2.85;;
33738;SDS011;20063;51.730;11.110;2023-06-14T04:56:49;6.57;;;2.78;;
33738;SDS011;20063;51.730;11.110;2023-06-14T04:59:15;5.60;;;3.05;;
33738;SDS011;20063;51.730;11.110;2023-06-14T05:01:42;6.88;;;3.17;;
33738;SDS011;20063;51.730;11.110;2023-06-14T05:04:16;5.38;;;3.53;;
33738;SDS011;20063;51.730;11.110;2023-06-14T05:06:43;6.28;;;2.90;;
33738;SDS011;20063;51.730;11.110;2023-06-14T05:09:15;8.85;;;3.03;;
33738;SDS011;20063;51.730;11.110;2023-06-14T05:11:42;3.67;;;2.45;;
33738;SDS011;20063;51.730;11.110;2023-06-14T05:14:09;5.03;;;3.00;;
33738;SDS011;20063;51.730;11.110;2023-06-14T05:16:35;7.65;;;3.40;;
33738;SDS011;20063;51.730;11.110;2023-06-14T05:19:01;3.38;;;2.80;;
33738;SDS011;20063;51.730;11.110;2023-06-14T05:21:31;8.63;;;4.18;;
33738;SDS011;20063;51.730;11.110;2023-06-14T05:23:58;16.98;;;4.57;;
33738;SDS011;20063;51.730;11.110;2023-06-14T05:26:24;7.22;;;3.63;;
33738;SDS011;20063;51.730;11.110;2023-06-14T05:28:54;5.10;;;3.55;;
33738;SDS011;20063;51.730;11.110;2023-06-14T05:31:21;8.07;;;4.32;;
33738;SDS011;20063;51.730;11.110;2023-06-14T05:33:48;10.60;;;3.42;;
33738;SDS011;20063;51.730;11.110;2023-06-14T05:36:13;5.03;;;2.55;;
33738;SDS011;20063;51.730;11.110;2023-06-14T05:38:39;4.40;;;3.47;;
33738;SDS011;20063;51.730;11.110;2023-06-14T05:41:05;3.25;;;2.75;;
33738;SDS011;20063;51.730;11.110;2023-06-14T05:43:30;11.43;;;3.40;;
33738;SDS011;20063;51.730;11.110;2023-06-14T05:45:56;6.00;;;2.80;;
33738;SDS011;20063;51.730;11.110;2023-06-14T05:48:25;7.47;;;3.85;;
33738;SDS011;20063;51.730;11.110;2023-06-14T05:50:50;9.15;;;3.40;;
33738;SDS011;20063;51.730;11.110;2023-06-14T05:53:16;9.23;;;3.65;;
33738;SDS011;20063;51.730;11.110;2023-06-14T05:55:42;8.73;;;4.22;;
33738;SDS011;20063;51.730;11.110;2023-06-14T05:58:07;6.80;;;4.07;;
33738;SDS011;20063;51.730;11.110;2023-06-14T06:00:33;3.92;;;3.35;;
33738;SDS011;20063;51.730;11.110;2023-06-14T06:02:59;8.60;;;4.13;;
33738;SDS011;20063;51.730;11.110;2023-06-14T06:05:34;7.43;;;4.30;;
33738;SDS011;20063;51.730;11.110;2023-06-14T06:08:00;7.32;;;3.97;;
33738;SDS011;20063;51.730;11.110;2023-06-14T06:10:25;5.25;;;3.35;;
33738;SDS011;20063;51.730;11.110;2023-06-14T06:12:51;8.15;;;3.38;;
33738;SDS011;20063;51.730;11.110;2023-06-14T06:15:17;5.55;;;3.50;;
33738;SDS011;20063;51.730;11.110;2023-06-14T06:17:43;6.25;;;3.70;;
33738;SDS011;20063;51.730;11.110;2023-06-14T06:20:09;5.97;;;4.47;;
33738;SDS011;20063;51.730;11.110;2023-06-14T06:22:36;5.75;;;3.80;;
33738;SDS011;20063;51.730;11.110;2023-06-14T06:25:02;7.85;;;3.95;;
33738;SDS011;20063;51.730;11.110;2023-06-14T06:27:28;10.85;;;5.05;;
33738;SDS011;20063;51.730;11.110;2023-06-14T06:29:53;9.55;;;5.45;;
33738;SDS011;20063;51.730;11.110;2023-06-14T06:32:19;7.63;;;5.55;;
33738;SDS011;20063;51.730;11.110;2023-06-14T06:34:45;6.65;;;4.90;;
33738;SDS011;20063;51.730;11.110;2023-06-14T06:37:10;11.77;;;5.13;;
33738;SDS011;20063;51.730;11.110;2023-06-14T06:39:36;7.43;;;4.82;;
33738;SDS011;20063;51.730;11.110;2023-06-14T06:42:02;11.05;;;5.10;;
33738;SDS011;20063;51.730;11.110;2023-06-14T06:44:29;9.73;;;4.50;;
33738;SDS011;20063;51.730;11.110;2023-06-14T06:46:54;18.10;;;6.93;;
33738;SDS011;20063;51.730;11.110;2023-06-14T06:49:20;10.43;;;5.03;;
33738;SDS011;20063;51.730;11.110;2023-06-14T06:51:58;13.23;;;5.40;;
33738;SDS011;20063;51.730;11.110;2023-06-14T06:54:26;6.18;;;4.82;;
33738;SDS011;20063;51.730;11.110;2023-06-14T06:56:51;10.38;;;5.72;;
33738;SDS011;20063;51.730;11.110;2023-06-14T06:59:17;8.27;;;5.00;;
33738;SDS011;20063;51.730;11.110;2023-06-14T07:01:42;7.50;;;5.00;;
33738;SDS011;20063;51.730;11.110;2023-06-14T07:04:08;19.35;;;7.68;;
33738;SDS011;20063;51.730;11.110;2023-06-14T07:06:34;9.95;;;5.45;;
33738;SDS011;20063;51.730;11.110;2023-06-14T07:08:59;12.35;;;5.45;;
33738;SDS011;20063;51.730;11.110;2023-06-14T07:11:26;7.55;;;5.13;;
33738;SDS011;20063;51.730;11.110;2023-06-14T07:13:52;10.77;;;5.85;;
33738;SDS011;20063;51.730;11.110;2023-06-14T07:16:17;10.55;;;5.82;;
33738;SDS011;20063;51.730;11.110;2023-06-14T07:18:43;7.85;;;5.78;;
33738;SDS011;20063;51.730;11.110;2023-06-14T07:21:09;9.07;;;5.28;;
33738;SDS011;20063;51.730;11.110;2023-06-14T07:23:35;10.13;;;5.65;;
33738;SDS011;20063;51.730;11.110;2023-06-14T07:26:00;10.30;;;6.05;;
33738;SDS011;20063;51.730;11.110;2023-06-14T07:28:26;11.02;;;5.55;;
33738;SDS011;20063;51.730;11.110;2023-06-14T07:30:52;11.43;;;7.03;;
33738;SDS011;20063;51.730;11.110;2023-06-14T07:33:17;8.85;;;5.28;;
33738;SDS011;20063;51.730;11.110;2023-06-14T07:35:46;11.95;;;5.20;;
33738;SDS011;20063;51.730;11.110;2023-06-14T07:38:12;11.32;;;6.00;;
33738;SDS011;20063;51.730;11.110;2023-06-14T07:40:38;6.53;;;4.82;;
33738;SDS011;20063;51.730;11.110;2023-06-14T07:43:03;12.10;;;5.68;;
33738;SDS011;20063;51.730;11.110;2023-06-14T07:45:29;5.80;;;4.13;;
33738;SDS011;20063;51.730;11.110;2023-06-14T07:47:55;5.78;;;4.50;;
33738;SDS011;20063;51.730;11.110;2023-06-14T07:50:21;5.88;;;4.38;;
33738;SDS011;20063;51.730;11.110;2023-06-14T07:52:47;6.38;;;3.95;;
33738;SDS011;20063;51.730;11.110;2023-06-14T07:55:13;5.88;;;4.53;;
33738;SDS011;20063;51.730;11.110;2023-06-14T07:57:40;12.93;;;4.22;;
33738;SDS011;20063;51.730;11.110;2023-06-14T08:00:05;6.72;;;4.78;;
33738;SDS011;20063;51.730;11.110;2023-06-14T08:02:32;9.05;;;4.35;;
33738;SDS011;20063;51.730;11.110;2023-06-14T08:04:57;5.45;;;3.75;;
33738;SDS011;20063;51.730;11.110;2023-06-14T08:07:23;5.82;;;4.03;;
33738;SDS011;20063;51.730;11.110;2023-06-14T08:09:49;7.75;;;4.07;;
33738;SDS011;20063;51.730;11.110;2023-06-14T08:12:15;9.23;;;3.92;;
33738;SDS011;20063;51.730;11.110;2023-06-14T08:14:41;5.32;;;3.90;;
33738;SDS011;20063;51.730;11.110;2023-06-14T08:17:07;5.93;;;4.28;;
33738;SDS011;20063;51.730;11.110;2023-06-14T08:19:33;8.25;;;3.35;;
33738;SDS011;20063;51.730;11.110;2023-06-14T08:21:58;5.10;;;3.13;;
33738;SDS011;20063;51.730;11.110;2023-06-14T08:24:24;5.45;;;3.22;;
33738;SDS011;20063;51.730;11.110;2023-06-14T08:26:52;6.38;;;3.55;;
33738;SDS011;20063;51.730;11.110;2023-06-14T08:29:18;5.15;;;3.15;;
33738;SDS011;20063;51.730;11.110;2023-06-14T08:31:44;10.63;;;3.80;;
33738;SDS011;20063;51.730;11.110;2023-06-14T08:34:10;8.63;;;3.78;;
33738;SDS011;20063;51.730;11.110;2023-06-14T08:36:36;5.72;;;3.70;;
33738;SDS011;20063;51.730;11.110;2023-06-14T08:39:01;4.30;;;3.50;;
33738;SDS011;20063;51.730;11.110;2023-06-14T08:41:27;8.45;;;3.97;;
33738;SDS011;20063;51.730;11.110;2023-06-14T08:43:54;5.97;;;3.67;;
33738;SDS011;20063;51.730;11.110;2023-06-14T08:46:20;8.40;;;4.38;;
33738;SDS011;20063;51.730;11.110;2023-06-14T08:48:48;7.75;;;3.88;;
33738;SDS011;20063;51.730;11.110;2023-06-14T08:51:16;5.80;;;3.72;;
33738;SDS011;20063;51.730;11.110;2023-06-14T08:53:44;9.98;;;3.75;;
33738;SDS011;20063;51.730;11.110;2023-06-14T08:56:10;6.03;;;3.35;;
33738;SDS011;20063;51.730;11.110;2023-06-14T08:58:40;9.05;;;3.67;;
33738;SDS011;20063;51.730;11.110;2023-06-14T09:01:09;10.05;;;3.70;;
33738;SDS011;20063;51.730;11.110;2023-06-14T09:03:39;7.10;;;3.15;;
33738;SDS011;20063;51.730;11.110;2023-06-14T09:06:08;6.22;;;4.03;;
33738;SDS011;20063;51.730;11.110;2023-06-14T09:08:39;3.58;;;3.22;;
33738;SDS011;20063;51.730;11.110;2023-06-14T09:11:13;10.68;;;3.85;;
33738;SDS011;20063;51.730;11.110;2023-06-14T09:13:40;8.88;;;4.35;;
33738;SDS011;20063;51.730;11.110;2023-06-14T09:16:06;3.10;;;2.80;;
33738;SDS011;20063;51.730;11.110;2023-06-14T09:21:06;8.70;;;2.95;;
33738;SDS011;20063;51.730;11.110;2023-06-14T09:23:39;7.88;;;3.08;;
33738;SDS011;20063;51.730;11.110;2023-06-14T09:26:15;6.82;;;2.90;;
33738;SDS011;20063;51.730;11.110;2023-06-14T09:31:11;13.27;;;2.95;;
33738;SDS011;20063;51.730;11.110;2023-06-14T09:33:38;4.30;;;3.20;;
33738;SDS011;20063;51.730;11.110;2023-06-14T09:36:10;6.50;;;3.03;;
33738;SDS011;20063;51.730;11.110;2023-06-14T09:38:39;5.78;;;3.25;;
33738;SDS011;20063;51.730;11.110;2023-06-14T09:41:05;5.75;;;2.60;;
33738;SDS011;20063;51.730;11.110;2023-06-14T09:43:31;6.80;;;3.45;;
33738;SDS011;20063;51.730;11.110;2023-06-14T09:46:00;8.07;;;2.85;;
33738;SDS011;20063;51.730;11.110;2023-06-14T09:48:26;3.10;;;2.72;;
33738;SDS011;20063;51.730;11.110;2023-06-14T09:50:51;7.10;;;2.72;;
33738;SDS011;20063;51.730;11.110;2023-06-14T09:53:21;3.95;;;2.65;;
33738;SDS011;20063;51.730;11.110;2023-06-14T09:55:48;5.45;;;2.45;;
33738;SDS011;20063;51.730;11.110;2023-06-14T09:58:15;6.00;;;2.72;;
33738;SDS011;20063;51.730;11.110;2023-06-14T10:00:44;3.50;;;2.47;;
33738;SDS011;20063;51.730;11.110;2023-06-14T10:03:13;2.67;;;2.22;;
33738;SDS011;20063;51.730;11.110;2023-06-14T10:05:45;7.40;;;2.47;;
33738;SDS011;20063;51.730;11.110;2023-06-14T10:08:23;5.70;;;2.30;;
33738;SDS011;20063;51.730;11.110;2023-06-14T10:10:53;14.20;;;2.63;;
33738;SDS011;20063;51.730;11.110;2023-06-14T10:13:21;4.40;;;1.98;;
33738;SDS011;20063;51.730;11.110;2023-06-14T10:15:54;3.13;;;2.42;;
33738;SDS011;20063;51.730;11.110;2023-06-14T10:18:33;5.87;;;2.23;;
33738;SDS011;20063;51.730;11.110;2023-06-14T10:24:03;11.18;;;2.55;;
33738;SDS011;20063;51.730;11.110;2023-06-14T10:26:31;4.45;;;2.42;;
33738;SDS011;20063;51.730;11.110;2023-06-14T10:29:01;10.48;;;2.50;;
33738;SDS011;20063;51.730;11.110;2023-06-14T10:31:50;4.47;;;2.25;;
33738;SDS011;20063;51.730;11.110;2023-06-14T10:34:24;7.45;;;2.40;;
33738;SDS011;20063;51.730;11.110;2023-06-14T10:37:00;3.17;;;2.50;;
33738;SDS011;20063;51.730;11.110;2023-06-14T10:39:27;4.32;;;2.72;;
33738;SDS011;20063;51.730;11.110;2023-06-14T10:41:54;12.13;;;7.53;;
33738;SDS011;20063;51.730;11.110;2023-06-14T10:46:47;6.95;;;2.47;;
33738;SDS011;20063;51.730;11.110;2023-06-14T10:49:19;4.45;;;2.58;;
33738;SDS011;20063;51.730;11.110;2023-06-14T10:51:46;2.88;;;2.10;;
33738;SDS011;20063;51.730;11.110;2023-06-14T10:54:16;2.60;;;2.30;;
33738;SDS011;20063;51.730;11.110;2023-06-14T10:59:14;3.42;;;2.30;;
33738;SDS011;20063;51.730;11.110;2023-06-14T11:01:41;2.13;;;1.92;;
33738;SDS011;20063;51.730;11.110;2023-06-14T11:13:11;8.40;;;2.33;;
33738;SDS011;20063;51.730;11.110;2023-06-14T11:15:38;10.50;;;2.67;;
33738;SDS011;20063;51.730;11.110;2023-06-14T11:18:04;5.30;;;2.55;;
33738;SDS011;20063;51.730;11.110;2023-06-14T11:20:32;5.75;;;2.67;;
33738;SDS011;20063;51.730;11.110;2023-06-14T11:22:59;8.07;;;2.17;;
33738;SDS011;20063;51.730;11.110;2023-06-14T11:25:25;2.50;;;1.95;;
33738;SDS011;20063;51.730;11.110;2023-06-14T11:27:53;5.07;;;2.55;;
33738;SDS011;20063;51.730;11.110;2023-06-14T11:30:20;5.40;;;2.35;;
33738;SDS011;20063;51.730;11.110;2023-06-14T11:32:46;7.00;;;2.67;;
33738;SDS011;20063;51.730;11.110;2023-06-14T11:35:12;8.88;;;2.85;;
33738;SDS011;20063;51.730;11.110;2023-06-14T11:37:39;2.67;;;2.30;;
33738;SDS011;20063;51.730;11.110;2023-06-14T11:40:06;6.43;;;2.58;;
33738;SDS011;20063;51.730;11.110;2023-06-14T11:42:33;10.98;;;2.55;;
33738;SDS011;20063;51.730;11.110;2023-06-14T11:44:59;13.32;;;2.45;;
33738;SDS011;20063;51.730;11.110;2023-06-14T11:47:31;7.15;;;3.10;;
33738;SDS011;20063;51.730;11.110;2023-06-14T11:49:58;7.00;;;2.63;;
33738;SDS011;20063;51.730;11.110;2023-06-14T11:52:31;15.48;;;2.70;;
33738;SDS011;20063;51.730;11.110;2023-06-14T11:54:57;6.35;;;3.15;;
33738;SDS011;20063;51.730;11.110;2023-06-14T11:57:25;8.82;;;2.70;;
33738;SDS011;20063;51.730;11.110;2023-06-14T11:59:51;5.93;;;2.55;;
33738;SDS011;20063;51.730;11.110;2023-06-14T12:02:17;6.88;;;3.00;;
33738;SDS011;20063;51.730;11.110;2023-06-14T12:04:44;5.32;;;2.75;;
33738;SDS011;20063;51.730;11.110;2023-06-14T12:07:12;3.33;;;1.95;;
33738;SDS011;20063;51.730;11.110;2023-06-14T12:12:22;3.45;;;2.45;;
33738;SDS011;20063;51.730;11.110;2023-06-14T12:14:50;6.97;;;2.58;;
33738;SDS011;20063;51.730;11.110;2023-06-14T12:17:16;7.20;;;2.50;;
33738;SDS011;20063;51.730;11.110;2023-06-14T12:19:42;3.33;;;2.30;;
33738;SDS011;20063;51.730;11.110;2023-06-14T12:22:09;5.70;;;2.90;;
33738;SDS011;20063;51.730;11.110;2023-06-14T12:24:35;4.57;;;2.38;;
33738;SDS011;20063;51.730;11.110;2023-06-14T12:27:01;6.13;;;2.97;;
33738;SDS011;20063;51.730;11.110;2023-06-14T12:29:28;5.15;;;2.75;;
33738;SDS011;20063;51.730;11.110;2023-06-14T12:31:54;4.28;;;2.53;;
33738;SDS011;20063;51.730;11.110;2023-06-14T12:34:22;8.55;;;2.65;;
33738;SDS011;20063;51.730;11.110;2023-06-14T12:36:49;6.88;;;2.47;;
33738;SDS011;20063;51.730;11.110;2023-06-14T12:39:15;8.93;;;2.83;;
33738;SDS011;20063;51.730;11.110;2023-06-14T12:41:41;9.48;;;3.22;;
33738;SDS011;20063;51.730;11.110;2023-06-14T12:44:07;11.52;;;3.28;;
33738;SDS011;20063;51.730;11.110;2023-06-14T12:46:33;8.15;;;2.47;;
33738;SDS011;20063;51.730;11.110;2023-06-14T12:48:59;9.10;;;2.50;;
33738;SDS011;20063;51.730;11.110;2023-06-14T12:51:25;8.77;;;2.75;;
33738;SDS011;20063;51.730;11.110;2023-06-14T12:53:51;4.00;;;2.80;;
33738;SDS011;20063;51.730;11.110;2023-06-14T12:56:17;6.20;;;3.10;;
33738;SDS011;20063;51.730;11.110;2023-06-14T12:58:42;7.68;;;2.75;;
33738;SDS011;20063;51.730;11.110;2023-06-14T13:01:08;9.80;;;3.40;;
33738;SDS011;20063;51.730;11.110;2023-06-14T13:03:37;7.13;;;3.00;;
33738;SDS011;20063;51.730;11.110;2023-06-14T13:06:03;5.45;;;3.17;;
33738;SDS011;20063;51.730;11.110;2023-06-14T13:08:29;5.03;;;3.13;;
33738;SDS011;20063;51.730;11.110;2023-06-14T13:10:55;7.28;;;3.17;;
33738;SDS011;20063;51.730;11.110;2023-06-14T13:13:21;7.07;;;4.68;;
33738;SDS011;20063;51.730;11.110;2023-06-14T13:15:46;9.13;;;3.03;;
33738;SDS011;20063;51.730;11.110;2023-06-14T13:18:14;7.78;;;3.40;;
33738;SDS011;20063;51.730;11.110;2023-06-14T13:20:39;17.52;;;3.22;;
33738;SDS011;20063;51.730;11.110;2023-06-14T13:23:05;5.22;;;3.03;;
33738;SDS011;20063;51.730;11.110;2023-06-14T13:25:32;6.07;;;2.95;;
33738;SDS011;20063;51.730;11.110;2023-06-14T13:28:03;4.90;;;3.10;;
33738;SDS011;20063;51.730;11.110;2023-06-14T13:30:29;7.55;;;3.40;;
33738;SDS011;20063;51.730;11.110;2023-06-14T13:32:55;8.50;;;3.45;;
33738;SDS011;20063;51.730;11.110;2023-06-14T13:35:22;7.35;;;3.45;;
33738;SDS011;20063;51.730;11.110;2023-06-14T13:37:48;11.00;;;3.58;;
33738;SDS011;20063;51.730;11.110;2023-06-14T13:40:13;7.65;;;3.10;;
33738;SDS011;20063;51.730;11.110;2023-06-14T13:42:39;11.23;;;3.17;;
33738;SDS011;20063;51.730;11.110;2023-06-14T13:45:05;9.18;;;3.15;;
33738;SDS011;20063;51.730;11.110;2023-06-14T13:47:32;12.52;;;2.67;;
33738;SDS011;20063;51.730;11.110;2023-06-14T13:49:57;13.23;;;3.67;;
33738;SDS011;20063;51.730;11.110;2023-06-14T13:52:23;9.52;;;3.17;;
33738;SDS011;20063;51.730;11.110;2023-06-14T13:54:49;11.52;;;3.53;;
33738;SDS011;20063;51.730;11.110;2023-06-14T13:57:15;5.15;;;3.28;;
33738;SDS011;20063;51.730;11.110;2023-06-14T13:59:41;14.80;;;2.90;;
33738;SDS011;20063;51.730;11.110;2023-06-14T14:02:09;5.78;;;2.97;;
33738;SDS011;20063;51.730;11.110;2023-06-14T14:04:35;5.72;;;3.47;;
33738;SDS011;20063;51.730;11.110;2023-06-14T14:07:01;8.05;;;3.13;;
33738;SDS011;20063;51.730;11.110;2023-06-14T14:09:28;7.40;;;3.38;;
33738;SDS011;20063;51.730;11.110;2023-06-14T14:11:53;5.65;;;2.80;;
33738;SDS011;20063;51.730;11.110;2023-06-14T14:14:19;10.60;;;3.67;;
33738;SDS011;20063;51.730;11.110;2023-06-14T14:16:45;9.38;;;3.03;;
33738;SDS011;20063;51.730;11.110;2023-06-14T14:19:11;5.47;;;3.20;;
33738;SDS011;20063;51.730;11.110;2023-06-14T14:21:36;4.38;;;3.00;;
33738;SDS011;20063;51.730;11.110;2023-06-14T14:24:02;6.85;;;2.90;;
33738;SDS011;20063;51.730;11.110;2023-06-14T14:26:29;8.15;;;3.58;;
33738;SDS011;20063;51.730;11.110;2023-06-14T14:28:55;7.63;;;3.53;;
33738;SDS011;20063;51.730;11.110;2023-06-14T14:31:20;8.60;;;3.58;;
33738;SDS011;20063;51.730;11.110;2023-06-14T14:33:46;3.45;;;2.85;;
33738;SDS011;20063;51.730;11.110;2023-06-14T14:36:11;12.50;;;4.10;;
33738;SDS011;20063;51.730;11.110;2023-06-14T14:38:38;9.85;;;3.47;;
33738;SDS011;20063;51.730;11.110;2023-06-14T14:41:04;9.65;;;3.63;;
33738;SDS011;20063;51.730;11.110;2023-06-14T14:43:30;6.68;;;3.40;;
33738;SDS011;20063;51.730;11.110;2023-06-14T14:45:56;11.27;;;2.92;;
33738;SDS011;20063;51.730;11.110;2023-06-14T14:48:22;3.63;;;2.60;;
33738;SDS011;20063;51.730;11.110;2023-06-14T14:50:48;8.15;;;3.33;;
33738;SDS011;20063;51.730;11.110;2023-06-14T14:53:13;4.72;;;3.35;;
33738;SDS011;20063;51.730;11.110;2023-06-14T14:55:41;5.38;;;3.50;;
33738;SDS011;20063;51.730;11.110;2023-06-14T14:58:07;4.93;;;3.33;;
33738;SDS011;20063;51.730;11.110;2023-06-14T15:00:33;10.73;;;3.50;;
33738;SDS011;20063;51.730;11.110;2023-06-14T15:02:59;10.48;;;3.72;;